sensor_id;sensor_type;location;lat;lon;timestamp;pressure;altitude;pressure_sealevel;temperature;humidity
22743;BME280;11538;48.884;8.696;2023-04-08T00:01:00;99045.06;;;9.35;100.00
22743;BME280;11538;48.884;8.696;2023-04-08T00:03:28;99049.38;;;9.36;100.00
22743;BME280;11538;48.884;8.696;2023-04-08T00:05:55;99048.50;;;9.41;100.00
22743;BME280;11538;48.884;8.696;2023-04-08T00:08:22;99051.00;;;9.37;100.00
22743;BME280;11538;48.884;8.696;2023-04-08T00:10:49;99049.91;;;9.38;100.00
22743;BME280;11538;48.884;8.696;2023-04-08T00:13:16;99052.69;;;9.28;100.00
22743;BME280;11538;48.884;8.696;2023-04-08T00:15:43;99053.22;;;9.30;100.00
22743;BME280;11538;48.884;8.696;2023-04-08T00:18:09;99053.75;;;9.32;100.00
22743;BME280;11538;48.884;8.696;2023-04-08T00:20:37;99055.31;;;9.38;100.00
22743;BME280;11538;48.884;8.696;2023-04-08T00:23:04;99051.75;;;9.43;100.00
22743;BME280;11538;48.884;8.696;2023-04-08T00:25:31;99055.78;;;9.45;100.00
22743;BME280;11538;48.884;8.696;2023-04-08T00:27:57;99058.50;;;9.45;100.00
22743;BME280;11538;48.884;8.696;2023-04-08T00:30:24;99059.06;;;9.42;100.00
22743;BME280;11538;48.884;8.696;2023-04-08T00:32:54;99055.84;;;9.40;100.00
22743;BME280;11538;48.884;8.696;2023-04-08T00:35:21;99056.34;;;9.42;100.00
22743;BME280;11538;48.884;8.696;2023-04-08T00:37:47;99052.59;;;9.38;100.00
22743;BME280;11538;48.884;8.696;2023-04-08T00:40:15;99052.66;;;9.33;100.00
22743;BME280;11538;48.884;8.696;2023-04-08T00:42:42;99054.22;;;9.39;100.00
22743;BME280;11538;48.884;8.696;2023-04-08T00:45:10;99053.97;;;9.35;100.00
22743;BME280;11538;48.884;8.696;2023-04-08T00:47:37;99061.31;;;9.35;100.00
22743;BME280;11538;48.884;8.696;2023-04-08T00:50:07;99061.81;;;9.37;100.00
22743;BME280;11538;48.884;8.696;2023-04-08T00:52:36;99060.16;;;9.41;100.00
22743;BME280;11538;48.884;8.696;2023-04-08T00:55:03;99060.94;;;9.42;100.00
22743;BME280;11538;48.884;8.696;2023-04-08T00:57:31;99062.88;;;9.41;100.00
22743;BME280;11538;48.884;8.696;2023-04-08T00:59:58;99064.75;;;9.41;100.00
22743;BME280;11538;48.884;8.696;2023-04-08T01:02:38;99061.03;;;9.31;100.00
22743;BME280;11538;48.884;8.696;2023-04-08T01:05:55;99062.97;;;9.26;100.00
22743;BME280;11538;48.884;8.696;2023-04-08T01:08:22;99065.16;;;9.29;100.00
22743;BME280;11538;48.884;8.696;2023-04-08T01:11:00;99069.47;;;9.30;100.00
22743;BME280;11538;48.884;8.696;2023-04-08T01:13:33;99066.19;;;9.33;100.00
22743;BME280;11538;48.884;8.696;2023-04-08T01:16:03;99064.81;;;9.35;100.00
22743;BME280;11538;48.884;8.696;2023-04-08T01:18:34;99069.94;;;9.37;100.00
22743;BME280;11538;48.884;8.696;2023-04-08T01:21:03;99071.03;;;9.36;100.00
22743;BME280;11538;48.884;8.696;2023-04-08T01:23:44;99070.78;;;9.32;100.00
22743;BME280;11538;48.884;8.696;2023-04-08T01:26:22;99070.22;;;9.35;100.00
22743;BME280;11538;48.884;8.696;2023-04-08T01:28:54;99071.59;;;9.33;100.00
22743;BME280;11538;48.884;8.696;2023-04-08T01:31:23;99066.19;;;9.33;100.00
22743;BME280;11538;48.884;8.696;2023-04-08T01:33:52;99071.09;;;9.31;100.00
22743;BME280;11538;48.884;8.696;2023-04-08T01:36:22;99073.78;;;9.31;100.00
22743;BME280;11538;48.884;8.696;2023-04-08T01:38:50;99071.66;;;9.28;100.00
22743;BME280;11538;48.884;8.696;2023-04-08T01:41:19;99075.41;;;9.27;100.00
22743;BME280;11538;48.884;8.696;2023-04-08T01:43:48;99070.56;;;9.24;100.00
22743;BME280;11538;48.884;8.696;2023-04-08T01:46:17;99070.00;;;9.27;100.00
22743;BME280;11538;48.884;8.696;2023-04-08T01:48:45;99068.38;;;9.26;100.00
22743;BME280;11538;48.884;8.696;2023-04-08T01:51:15;99063.53;;;9.28;100.00
22743;BME280;11538;48.884;8.696;2023-04-08T01:53:42;99062.13;;;9.30;100.00
22743;BME280;11538;48.884;8.696;2023-04-08T01:56:12;99057.81;;;9.29;100.00
22743;BME280;11538;48.884;8.696;2023-04-08T01:58:46;99069.72;;;9.28;100.00
22743;BME280;11538;48.884;8.696;2023-04-08T02:01:19;99066.50;;;9.26;100.00
22743;BME280;11538;48.884;8.696;2023-04-08T02:03:47;99061.88;;;9.27;100.00
22743;BME280;11538;48.884;8.696;2023-04-08T02:06:17;99056.47;;;9.27;100.00
22743;BME280;11538;48.884;8.696;2023-04-08T02:08:44;99054.59;;;9.27;100.00
22743;BME280;11538;48.884;8.696;2023-04-08T02:11:12;99059.44;;;9.30;100.00
22743;BME280;11538;48.884;8.696;2023-04-08T02:13:39;99058.97;;;9.23;100.00
22743;BME280;11538;48.884;8.696;2023-04-08T02:16:22;99061.66;;;9.23;100.00
22743;BME280;11538;48.884;8.696;2023-04-08T02:18:59;99063.84;;;9.21;100.00
22743;BME280;11538;48.884;8.696;2023-04-08T02:21:41;99055.75;;;9.16;100.00
22743;BME280;11538;48.884;8.696;2023-04-08T02:24:12;99056.59;;;9.11;100.00
22743;BME280;11538;48.884;8.696;2023-04-08T02:26:43;99061.97;;;9.16;100.00
22743;BME280;11538;48.884;8.696;2023-04-08T02:29:15;99058.22;;;9.12;100.00
22743;BME280;11538;48.884;8.696;2023-04-08T02:31:45;99055.25;;;9.14;100.00
22743;BME280;11538;48.884;8.696;2023-04-08T02:34:13;99049.31;;;9.12;100.00
22743;BME280;11538;48.884;8.696;2023-04-08T02:36:41;99048.75;;;9.15;100.00
22743;BME280;11538;48.884;8.696;2023-04-08T02:39:14;99057.09;;;9.18;100.00
22743;BME280;11538;48.884;8.696;2023-04-08T02:41:41;99058.75;;;9.14;100.00
22743;BME280;11538;48.884;8.696;2023-04-08T02:44:08;99050.41;;;9.11;100.00
22743;BME280;11538;48.884;8.696;2023-04-08T02:46:36;99059.88;;;9.08;100.00
22743;BME280;11538;48.884;8.696;2023-04-08T02:49:03;99058.81;;;9.04;100.00
22743;BME280;11538;48.884;8.696;2023-04-08T02:51:30;99059.09;;;9.07;100.00
22743;BME280;11538;48.884;8.696;2023-04-08T02:53:57;99056.41;;;9.02;100.00
22743;BME280;11538;48.884;8.696;2023-04-08T02:56:24;99064.25;;;9.04;100.00
22743;BME280;11538;48.884;8.696;2023-04-08T02:58:51;99062.63;;;9.03;100.00
22743;BME280;11538;48.884;8.696;2023-04-08T03:01:18;99061.53;;;9.04;100.00
22743;BME280;11538;48.884;8.696;2023-04-08T03:03:45;99056.41;;;9.02;100.00
22743;BME280;11538;48.884;8.696;2023-04-08T03:06:12;99056.16;;;8.99;100.00
22743;BME280;11538;48.884;8.696;2023-04-08T03:08:39;99051.53;;;9.04;100.00
22743;BME280;11538;48.884;8.696;2023-04-08T03:11:06;99056.41;;;9.02;100.00
22743;BME280;11538;48.884;8.696;2023-04-08T03:13:32;99054.59;;;8.92;100.00
22743;BME280;11538;48.884;8.696;2023-04-08T03:16:01;99054.03;;;8.96;100.00
22743;BME280;11538;48.884;8.696;2023-04-08T03:18:27;99061.03;;;8.97;100.00
22743;BME280;11538;48.884;8.696;2023-04-08T03:20:54;99060.47;;;9.00;100.00
22743;BME280;11538;48.884;8.696;2023-04-08T03:23:21;99063.72;;;9.02;100.00
22743;BME280;11538;48.884;8.696;2023-04-08T03:25:48;99063.19;;;9.00;100.00
22743;BME280;11538;48.884;8.696;2023-04-08T03:28:15;99061.56;;;8.99;100.00
22743;BME280;11538;48.884;8.696;2023-04-08T03:30:42;99068.84;;;9.03;100.00
22743;BME280;11538;48.884;8.696;2023-04-08T03:33:09;99066.94;;;9.04;100.00
22743;BME280;11538;48.884;8.696;2023-04-08T03:35:36;99068.03;;;9.03;100.00
22743;BME280;11538;48.884;8.696;2023-04-08T03:38:04;99065.66;;;8.96;100.00
22743;BME280;11538;48.884;8.696;2023-04-08T03:40:31;99071.81;;;9.02;100.00
22743;BME280;11538;48.884;8.696;2023-04-08T03:42:58;99074.25;;;9.03;100.00
22743;BME280;11538;48.884;8.696;2023-04-08T03:45:25;99079.94;;;9.02;100.00
22743;BME280;11538;48.884;8.696;2023-04-08T03:47:53;99072.41;;;8.99;100.00
22743;BME280;11538;48.884;8.696;2023-04-08T03:50:20;99068.06;;;8.98;100.00
22743;BME280;11538;48.884;8.696;2023-04-08T03:52:46;99071.81;;;9.02;100.00
22743;BME280;11538;48.884;8.696;2023-04-08T03:55:13;99071.59;;;8.98;100.00
22743;BME280;11538;48.884;8.696;2023-04-08T03:57:43;99067.28;;;8.97;100.00
22743;BME280;11538;48.884;8.696;2023-04-08T04:00:11;99067.84;;;8.94;100.00
22743;BME280;11538;48.884;8.696;2023-04-08T04:02:39;99071.59;;;8.98;100.00
22743;BME280;11538;48.884;8.696;2023-04-08T04:05:07;99059.97;;;8.98;100.00
22743;BME280;11538;48.884;8.696;2023-04-08T04:07:34;99067.53;;;8.96;100.00
22743;BME280;11538;48.884;8.696;2023-04-08T04:10:01;99062.97;;;8.96;100.00
22743;BME280;11538;48.884;8.696;2023-04-08T04:12:28;99075.06;;;9.04;100.00
22743;BME280;11538;48.884;8.696;2023-04-08T04:14:55;99069.13;;;9.02;100.00
22743;BME280;11538;48.884;8.696;2023-04-08T04:17:21;99074.91;;;8.90;100.00
22743;BME280;11538;48.884;8.696;2023-04-08T04:19:48;99083.28;;;8.88;100.00
22743;BME280;11538;48.884;8.696;2023-04-08T04:22:15;99081.66;;;8.87;100.00
22743;BME280;11538;48.884;8.696;2023-04-08T04:24:49;99075.97;;;8.94;100.00
22743;BME280;11538;48.884;8.696;2023-04-08T04:27:16;99076.22;;;8.92;100.00
22743;BME280;11538;48.884;8.696;2023-04-08T04:29:46;99075.97;;;8.94;100.00
22743;BME280;11538;48.884;8.696;2023-04-08T04:32:12;99081.63;;;8.92;100.00
22743;BME280;11538;48.884;8.696;2023-04-08T04:34:39;99078.97;;;8.87;100.00
22743;BME280;11538;48.884;8.696;2023-04-08T04:37:06;99087.38;;;8.86;100.00
22743;BME280;11538;48.884;8.696;2023-04-08T04:39:33;99087.38;;;8.86;100.00
22743;BME280;11538;48.884;8.696;2023-04-08T04:42:00;99084.38;;;8.87;100.00
22743;BME280;11538;48.884;8.696;2023-04-08T04:44:27;99085.50;;;8.81;100.00
22743;BME280;11538;48.884;8.696;2023-04-08T04:46:53;99083.09;;;8.80;100.00
22743;BME280;11538;48.884;8.696;2023-04-08T04:49:20;99084.72;;;8.81;100.00
22743;BME280;11538;48.884;8.696;2023-04-08T04:51:47;99083.34;;;8.78;100.00
22743;BME280;11538;48.884;8.696;2023-04-08T04:54:14;99087.16;;;8.77;100.00
22743;BME280;11538;48.884;8.696;2023-04-08T04:56:41;99092.28;;;8.78;100.00
22743;BME280;11538;48.884;8.696;2023-04-08T04:59:08;99088.16;;;8.86;100.00
22743;BME280;11538;48.884;8.696;2023-04-08T05:01:36;99092.50;;;8.87;100.00
22743;BME280;11538;48.884;8.696;2023-04-08T05:04:03;99095.22;;;8.82;100.00
22743;BME280;11538;48.884;8.696;2023-04-08T05:06:30;99097.72;;;8.78;100.00
22743;BME280;11538;48.884;8.696;2023-04-08T05:08:57;99091.78;;;8.76;100.00
22743;BME280;11538;48.884;8.696;2023-04-08T05:11:24;99105.56;;;8.75;100.00
22743;BME280;11538;48.884;8.696;2023-04-08T05:13:51;99107.16;;;8.76;100.00
22743;BME280;11538;48.884;8.696;2023-04-08T05:16:18;99106.09;;;8.77;100.00
22743;BME280;11538;48.884;8.696;2023-04-08T05:18:45;99112.31;;;8.77;100.00
22743;BME280;11538;48.884;8.696;2023-04-08T05:21:12;99117.16;;;8.81;100.00
22743;BME280;11538;48.884;8.696;2023-04-08T05:23:39;99114.16;;;8.82;100.00
22743;BME280;11538;48.884;8.696;2023-04-08T05:26:07;99113.59;;;8.85;100.00
22743;BME280;11538;48.884;8.696;2023-04-08T05:28:34;99123.34;;;8.86;100.00
22743;BME280;11538;48.884;8.696;2023-04-08T05:31:01;99121.72;;;8.85;100.00
22743;BME280;11538;48.884;8.696;2023-04-08T05:33:28;99117.66;;;8.88;100.00
22743;BME280;11538;48.884;8.696;2023-04-08T05:35:55;99122.81;;;8.84;100.00
22743;BME280;11538;48.884;8.696;2023-04-08T05:38:22;99123.38;;;8.81;100.00
22743;BME280;11538;48.884;8.696;2023-04-08T05:40:49;99123.91;;;8.83;100.00
22743;BME280;11538;48.884;8.696;2023-04-08T05:43:17;99130.91;;;8.89;100.00
22743;BME280;11538;48.884;8.696;2023-04-08T05:45:44;99125.00;;;8.82;100.00
22743;BME280;11538;48.884;8.696;2023-04-08T05:48:11;99123.91;;;8.83;100.00
22743;BME280;11538;48.884;8.696;2023-04-08T05:50:38;99126.03;;;8.86;100.00
22743;BME280;11538;48.884;8.696;2023-04-08T05:53:04;99127.66;;;8.87;100.00
22743;BME280;11538;48.884;8.696;2023-04-08T05:55:31;99131.41;;;8.91;100.00
22743;BME280;11538;48.884;8.696;2023-04-08T05:57:58;99131.16;;;8.93;100.00
22743;BME280;11538;48.884;8.696;2023-04-08T06:00:25;99138.19;;;8.94;100.00
22743;BME280;11538;48.884;8.696;2023-04-08T06:02:54;99136.00;;;8.96;100.00
22743;BME280;11538;48.884;8.696;2023-04-08T06:05:21;99133.56;;;8.95;100.00
22743;BME280;11538;48.884;8.696;2023-04-08T06:07:48;99142.25;;;8.91;100.00
22743;BME280;11538;48.884;8.696;2023-04-08T06:10:15;99144.16;;;8.91;100.00
22743;BME280;11538;48.884;8.696;2023-04-08T06:12:42;99139.28;;;8.93;100.00
22743;BME280;11538;48.884;8.696;2023-04-08T06:15:09;99149.25;;;8.98;100.00
22743;BME280;11538;48.884;8.696;2023-04-08T06:17:37;99148.69;;;9.01;100.00
22743;BME280;11538;48.884;8.696;2023-04-08T06:20:05;99150.25;;;9.07;100.00
22743;BME280;11538;48.884;8.696;2023-04-08T06:22:32;99150.19;;;9.17;100.00
22743;BME280;11538;48.884;8.696;2023-04-08T06:24:59;99153.66;;;9.28;100.00
22743;BME280;11538;48.884;8.696;2023-04-08T06:27:26;99165.31;;;9.29;100.00
22743;BME280;11538;48.884;8.696;2023-04-08T06:29:53;99163.91;;;9.31;100.00
22743;BME280;11538;48.884;8.696;2023-04-08T06:32:21;99171.22;;;9.36;100.00
22743;BME280;11538;48.884;8.696;2023-04-08T06:34:48;99164.69;;;9.37;100.00
22743;BME280;11538;48.884;8.696;2023-04-08T06:37:15;99166.88;;;9.35;100.00
22743;BME280;11538;48.884;8.696;2023-04-08T06:39:42;99170.94;;;9.32;100.00
22743;BME280;11538;48.884;8.696;2023-04-08T06:42:09;99172.34;;;9.30;100.00
22743;BME280;11538;48.884;8.696;2023-04-08T06:44:37;99176.13;;;9.29;100.00
22743;BME280;11538;48.884;8.696;2023-04-08T06:47:06;99181.50;;;9.34;100.00
22743;BME280;11538;48.884;8.696;2023-04-08T06:49:33;99180.66;;;9.39;100.00
22743;BME280;11538;48.884;8.696;2023-04-08T06:52:00;99173.91;;;9.36;100.00
22743;BME280;11538;48.884;8.696;2023-04-08T06:54:27;99177.97;;;9.33;100.00
22743;BME280;11538;48.884;8.696;2023-04-08T06:56:54;99180.47;;;9.25;100.00
22743;BME280;11538;48.884;8.696;2023-04-08T06:59:21;99188.06;;;9.22;100.00
22743;BME280;11538;48.884;8.696;2023-04-08T07:01:48;99184.25;;;9.24;100.00
22743;BME280;11538;48.884;8.696;2023-04-08T07:04:15;99179.94;;;9.22;100.00
22743;BME280;11538;48.884;8.696;2023-04-08T07:06:43;99187.50;;;9.26;100.00
22743;BME280;11538;48.884;8.696;2023-04-08T07:09:10;99187.50;;;9.31;100.00
22743;BME280;11538;48.884;8.696;2023-04-08T07:11:37;99186.63;;;9.35;100.00
22743;BME280;11538;48.884;8.696;2023-04-08T07:14:04;99187.94;;;9.43;100.00
22743;BME280;11538;48.884;8.696;2023-04-08T07:16:31;99187.94;;;9.43;100.00
22743;BME280;11538;48.884;8.696;2023-04-08T07:18:59;99186.59;;;9.41;100.00
22743;BME280;11538;48.884;8.696;2023-04-08T07:21:26;99188.47;;;9.45;100.00
22743;BME280;11538;48.884;8.696;2023-04-08T07:23:53;99191.38;;;9.54;100.00
22743;BME280;11538;48.884;8.696;2023-04-08T07:26:20;99185.63;;;9.61;100.00
22743;BME280;11538;48.884;8.696;2023-04-08T07:28:48;99193.75;;;9.61;100.00
22743;BME280;11538;48.884;8.696;2023-04-08T07:31:17;99198.34;;;9.60;100.00
22743;BME280;11538;48.884;8.696;2023-04-08T07:33:45;99197.31;;;9.56;100.00
22743;BME280;11538;48.884;8.696;2023-04-08T07:36:13;99200.84;;;9.57;100.00
22743;BME280;11538;48.884;8.696;2023-04-08T07:38:41;99203.78;;;9.60;100.00
22743;BME280;11538;48.884;8.696;2023-04-08T07:41:07;99201.59;;;9.62;100.00
22743;BME280;11538;48.884;8.696;2023-04-08T07:43:34;99204.31;;;9.62;100.00
22743;BME280;11538;48.884;8.696;2023-04-08T07:46:04;99209.94;;;9.71;100.00
22743;BME280;11538;48.884;8.696;2023-04-08T07:48:33;99208.78;;;9.77;100.00
22743;BME280;11538;48.884;8.696;2023-04-08T07:51:08;99209.31;;;9.79;100.00
22743;BME280;11538;48.884;8.696;2023-04-08T07:53:38;99214.44;;;9.81;100.00
22743;BME280;11538;48.884;8.696;2023-04-08T07:56:13;99201.09;;;9.90;100.00
22743;BME280;11538;48.884;8.696;2023-04-08T07:58:41;99201.56;;;9.97;100.00
22743;BME280;11538;48.884;8.696;2023-04-08T08:01:20;99218.84;;;10.06;100.00
22743;BME280;11538;48.884;8.696;2023-04-08T08:03:49;99221.44;;;10.17;100.00
22743;BME280;11538;48.884;8.696;2023-04-08T08:06:18;99210.84;;;10.20;100.00
22743;BME280;11538;48.884;8.696;2023-04-08T08:08:45;99221.91;;;10.24;100.00
22743;BME280;11538;48.884;8.696;2023-04-08T08:11:12;99220.25;;;10.28;100.00
22743;BME280;11538;48.884;8.696;2023-04-08T08:13:39;99224.78;;;10.38;100.00
22743;BME280;11538;48.884;8.696;2023-04-08T08:16:06;99223.59;;;10.49;100.00
22743;BME280;11538;48.884;8.696;2023-04-08T08:18:37;99225.44;;;10.54;100.00
22743;BME280;11538;48.884;8.696;2023-04-08T08:21:06;99228.63;;;10.61;98.23
22743;BME280;11538;48.884;8.696;2023-04-08T08:23:33;99226.94;;;10.65;97.43
22743;BME280;11538;48.884;8.696;2023-04-08T08:26:02;99233.41;;;10.70;96.34
22743;BME280;11538;48.884;8.696;2023-04-08T08:28:29;99226.38;;;10.68;94.37
22743;BME280;11538;48.884;8.696;2023-04-08T08:30:56;99234.00;;;10.66;93.68
22743;BME280;11538;48.884;8.696;2023-04-08T08:33:24;99236.41;;;10.68;93.84
22743;BME280;11538;48.884;8.696;2023-04-08T08:35:51;99234.53;;;10.88;93.00
22743;BME280;11538;48.884;8.696;2023-04-08T08:38:18;99233.41;;;11.13;90.83
22743;BME280;11538;48.884;8.696;2023-04-08T08:40:45;99233.94;;;11.15;90.47
22743;BME280;11538;48.884;8.696;2023-04-08T08:43:13;99235.47;;;11.21;91.37
22743;BME280;11538;48.884;8.696;2023-04-08T08:45:41;99236.13;;;11.51;89.57
22743;BME280;11538;48.884;8.696;2023-04-08T08:48:09;99242.31;;;11.90;87.52
22743;BME280;11538;48.884;8.696;2023-04-08T08:50:36;99237.63;;;12.29;83.05
22743;BME280;11538;48.884;8.696;2023-04-08T08:53:04;99239.47;;;12.62;82.50
22743;BME280;11538;48.884;8.696;2023-04-08T08:55:32;99250.13;;;12.86;79.70
22743;BME280;11538;48.884;8.696;2023-04-08T08:58:26;99250.53;;;13.07;77.40
22743;BME280;11538;48.884;8.696;2023-04-08T09:00:53;99257.13;;;12.78;76.70
22743;BME280;11538;48.884;8.696;2023-04-08T09:03:26;99253.94;;;12.43;77.98
22743;BME280;11538;48.884;8.696;2023-04-08T09:06:00;99259.78;;;12.36;78.05
22743;BME280;11538;48.884;8.696;2023-04-08T09:08:32;99249.09;;;12.40;77.76
22743;BME280;11538;48.884;8.696;2023-04-08T09:11:17;99252.84;;;12.30;77.09
22743;BME280;11538;48.884;8.696;2023-04-08T09:13:46;99258.19;;;12.35;75.15
22743;BME280;11538;48.884;8.696;2023-04-08T09:16:16;99256.25;;;12.36;75.36
22743;BME280;11538;48.884;8.696;2023-04-08T09:18:47;99256.19;;;12.55;74.17
22743;BME280;11538;48.884;8.696;2023-04-08T09:21:16;99258.63;;;12.84;74.16
22743;BME280;11538;48.884;8.696;2023-04-08T09:23:49;99258.69;;;12.93;72.00
22743;BME280;11538;48.884;8.696;2023-04-08T09:26:20;99260.81;;;12.96;73.56
22743;BME280;11538;48.884;8.696;2023-04-08T09:29:04;99255.69;;;12.81;72.91
22743;BME280;11538;48.884;8.696;2023-04-08T09:31:58;99251.38;;;12.66;74.41
22743;BME280;11538;48.884;8.696;2023-04-08T09:34:28;99256.09;;;12.74;74.65
22743;BME280;11538;48.884;8.696;2023-04-08T09:36:56;99261.56;;;12.74;71.18
22743;BME280;11538;48.884;8.696;2023-04-08T09:39:24;99256.59;;;12.62;69.59
22743;BME280;11538;48.884;8.696;2023-04-08T09:41:51;99261.03;;;12.72;70.08
22743;BME280;11538;48.884;8.696;2023-04-08T09:44:20;99262.03;;;13.04;68.68
22743;BME280;11538;48.884;8.696;2023-04-08T09:47:17;99261.59;;;13.25;66.77
22743;BME280;11538;48.884;8.696;2023-04-08T09:49:54;99259.56;;;13.44;67.10
22743;BME280;11538;48.884;8.696;2023-04-08T09:52:47;99263.19;;;13.40;66.67
22743;BME280;11538;48.884;8.696;2023-04-08T09:55:21;99261.06;;;13.37;66.06
22743;BME280;11538;48.884;8.696;2023-04-08T09:58:07;99263.19;;;13.40;63.76
22743;BME280;11538;48.884;8.696;2023-04-08T10:00:41;99258.34;;;13.37;62.95
22743;BME280;11538;48.884;8.696;2023-04-08T10:03:34;99264.88;;;13.50;63.75
22743;BME280;11538;48.884;8.696;2023-04-08T10:06:03;99267.22;;;13.56;64.69
22743;BME280;11538;48.884;8.696;2023-04-08T10:08:32;99272.16;;;13.40;63.65
22743;BME280;11538;48.884;8.696;2023-04-08T10:10:59;99265.91;;;13.40;63.58
22743;BME280;11538;48.884;8.696;2023-04-08T10:13:27;99268.72;;;13.49;63.84
22743;BME280;11538;48.884;8.696;2023-04-08T10:16:18;99270.22;;;13.55;64.12
22743;BME280;11538;48.884;8.696;2023-04-08T10:18:49;99266.22;;;13.52;64.31
22743;BME280;11538;48.884;8.696;2023-04-08T10:23:59;99257.69;;;13.68;64.15
22743;BME280;11538;48.884;8.696;2023-04-08T10:26:42;99254.25;;;13.62;63.05
22743;BME280;11538;48.884;8.696;2023-04-08T10:31:54;99250.25;;;13.82;62.60
22743;BME280;11538;48.884;8.696;2023-04-08T10:34:24;99255.38;;;13.84;60.72
22743;BME280;11538;48.884;8.696;2023-04-08T10:36:54;99249.63;;;13.85;60.58
22743;BME280;11538;48.884;8.696;2023-04-08T10:39:23;99256.63;;;13.78;60.81
22743;BME280;11538;48.884;8.696;2023-04-08T10:41:51;99248.44;;;13.78;62.66
22743;BME280;11538;48.884;8.696;2023-04-08T10:44:24;99251.84;;;13.60;61.76
22743;BME280;11538;48.884;8.696;2023-04-08T10:46:53;99255.00;;;13.40;62.55
22743;BME280;11538;48.884;8.696;2023-04-08T10:49:20;99252.72;;;13.19;62.92
22743;BME280;11538;48.884;8.696;2023-04-08T10:51:48;99260.09;;;13.05;63.66
22743;BME280;11538;48.884;8.696;2023-04-08T10:54:16;99254.25;;;12.97;64.30
22743;BME280;11538;48.884;8.696;2023-04-08T10:56:49;99256.81;;;12.94;63.35
22743;BME280;11538;48.884;8.696;2023-04-08T10:59:30;99254.97;;;12.89;63.95
22743;BME280;11538;48.884;8.696;2023-04-08T11:01:58;99247.63;;;12.90;64.65
22743;BME280;11538;48.884;8.696;2023-04-08T11:04:27;99253.75;;;12.95;64.62
22743;BME280;11538;48.884;8.696;2023-04-08T11:06:54;99250.75;;;12.97;63.81
22743;BME280;11538;48.884;8.696;2023-04-08T11:09:21;99252.66;;;12.96;63.21
22743;BME280;11538;48.884;8.696;2023-04-08T11:11:49;99252.53;;;13.01;63.68
22743;BME280;11538;48.884;8.696;2023-04-08T11:14:16;99252.53;;;13.01;63.44
22743;BME280;11538;48.884;8.696;2023-04-08T11:16:47;99257.47;;;12.99;62.93
22743;BME280;11538;48.884;8.696;2023-04-08T11:19:14;99256.19;;;12.83;63.43
22743;BME280;11538;48.884;8.696;2023-04-08T11:21:41;99253.38;;;12.74;63.70
22743;BME280;11538;48.884;8.696;2023-04-08T11:24:10;99251.66;;;12.64;62.83
22743;BME280;11538;48.884;8.696;2023-04-08T11:26:39;99250.88;;;12.64;63.25
22743;BME280;11538;48.884;8.696;2023-04-08T11:29:10;99255.69;;;12.67;62.37
22743;BME280;11538;48.884;8.696;2023-04-08T11:31:42;99251.25;;;12.71;60.52
22743;BME280;11538;48.884;8.696;2023-04-08T11:34:09;99253.88;;;12.76;59.31
22743;BME280;11538;48.884;8.696;2023-04-08T11:36:39;99247.22;;;12.82;58.42
22743;BME280;11538;48.884;8.696;2023-04-08T11:39:09;99252.16;;;12.80;58.08
22743;BME280;11538;48.884;8.696;2023-04-08T11:41:38;99252.06;;;12.85;58.33
22743;BME280;11538;48.884;8.696;2023-04-08T11:44:10;99255.25;;;13.01;58.69
22743;BME280;11538;48.884;8.696;2023-04-08T11:46:37;99246.25;;;13.15;57.19
22743;BME280;11538;48.884;8.696;2023-04-08T11:49:07;99254.44;;;13.15;52.39
22743;BME280;11538;48.884;8.696;2023-04-08T11:51:53;99253.25;;;13.07;51.11
22743;BME280;11538;48.884;8.696;2023-04-08T11:54:31;99250.94;;;13.00;50.31
22743;BME280;11538;48.884;8.696;2023-04-08T11:56:59;99242.56;;;12.97;50.46
22743;BME280;11538;48.884;8.696;2023-04-08T11:59:26;99246.91;;;12.98;50.82
22743;BME280;11538;48.884;8.696;2023-04-08T12:01:56;99248.31;;;12.95;51.27
22743;BME280;11538;48.884;8.696;2023-04-08T12:04:23;99245.47;;;13.00;51.73
22743;BME280;11538;48.884;8.696;2023-04-08T12:06:50;99246.47;;;13.19;51.99
22743;BME280;11538;48.884;8.696;2023-04-08T12:09:18;99248.06;;;13.34;51.75
22743;BME280;11538;48.884;8.696;2023-04-08T12:11:44;99249.69;;;13.35;50.93
22743;BME280;11538;48.884;8.696;2023-04-08T12:14:13;99243.22;;;13.30;50.76
22743;BME280;11538;48.884;8.696;2023-04-08T12:16:40;99241.13;;;13.27;51.00
22743;BME280;11538;48.884;8.696;2023-04-08T12:19:07;99242.63;;;13.20;51.27
22743;BME280;11538;48.884;8.696;2023-04-08T12:21:34;99242.84;;;13.09;51.75
22743;BME280;11538;48.884;8.696;2023-04-08T12:24:01;99244.38;;;13.01;52.71
22743;BME280;11538;48.884;8.696;2023-04-08T12:26:28;99250.03;;;12.91;52.75
22743;BME280;11538;48.884;8.696;2023-04-08T12:28:55;99249.25;;;12.91;53.59
22743;BME280;11538;48.884;8.696;2023-04-08T12:31:22;99254.56;;;12.96;53.73
22743;BME280;11538;48.884;8.696;2023-04-08T12:33:49;99259.41;;;12.99;53.78
22743;BME280;11538;48.884;8.696;2023-04-08T12:36:16;99255.25;;;13.01;53.81
22743;BME280;11538;48.884;8.696;2023-04-08T12:38:43;99258.38;;;13.09;52.98
22743;BME280;11538;48.884;8.696;2023-04-08T12:41:10;99253.44;;;13.11;52.69
22743;BME280;11538;48.884;8.696;2023-04-08T12:43:37;99257.28;;;13.10;51.91
22743;BME280;11538;48.884;8.696;2023-04-08T12:46:05;99252.25;;;13.03;51.71
22743;BME280;11538;48.884;8.696;2023-04-08T12:48:32;99248.22;;;13.00;51.42
22743;BME280;11538;48.884;8.696;2023-04-08T12:50:58;99252.75;;;13.05;51.07
22743;BME280;11538;48.884;8.696;2023-04-08T12:53:25;99251.94;;;13.05;51.03
22743;BME280;11538;48.884;8.696;2023-04-08T12:55:52;99245.69;;;13.04;51.46
22743;BME280;11538;48.884;8.696;2023-04-08T12:58:23;99248.72;;;13.02;51.38
22743;BME280;11538;48.884;8.696;2023-04-08T13:00:51;99255.75;;;13.04;51.50
22743;BME280;11538;48.884;8.696;2023-04-08T13:03:18;99255.97;;;13.07;50.94
22743;BME280;11538;48.884;8.696;2023-04-08T13:05:45;99249.72;;;13.07;50.67
22743;BME280;11538;48.884;8.696;2023-04-08T13:08:11;99248.38;;;13.18;50.35
22743;BME280;11538;48.884;8.696;2023-04-08T13:10:40;99252.31;;;13.26;50.35
22743;BME280;11538;48.884;8.696;2023-04-08T13:13:07;99251.09;;;13.46;49.98
22743;BME280;11538;48.884;8.696;2023-04-08T13:15:34;99249.00;;;13.66;48.53